createdAt,value
2018-06-12T00:02:05.867Z,91.20
2018-06-12T00:04:32.911Z,90.10
2018-06-12T00:06:59.967Z,90.00
2018-06-12T00:09:26.990Z,90.10
2018-06-12T00:11:54.042Z,86.60
2018-06-12T00:14:21.077Z,86.80
2018-06-12T00:16:48.155Z,85.50
2018-06-12T00:19:15.178Z,85.80
2018-06-12T00:21:42.218Z,85.80
2018-06-12T00:24:09.231Z,85.60
2018-06-12T00:26:36.300Z,87.30
2018-06-12T00:29:03.346Z,89.10
2018-06-12T00:31:30.391Z,88.60
2018-06-12T00:33:57.443Z,90.30
2018-06-12T00:36:24.454Z,91.80
2018-06-12T00:38:51.502Z,93.30
2018-06-12T00:41:18.538Z,95.00
2018-06-12T00:43:45.578Z,95.80
2018-06-12T00:46:12.647Z,99.90
2018-06-12T00:48:39.657Z,99.60
2018-06-12T00:53:33.846Z,99.90
2018-06-12T00:56:00.866Z,99.90
2018-06-12T00:58:27.903Z,99.90
2018-06-12T01:00:54.915Z,99.90
2018-06-12T01:03:21.954Z,99.90
2018-06-12T01:05:49.049Z,99.90
2018-06-12T01:08:16.079Z,99.90
2018-06-12T01:10:43.099Z,99.90
2018-06-12T01:13:10.947Z,99.90
2018-06-12T01:15:37.986Z,99.90
2018-06-12T01:18:05.014Z,99.90
2018-06-12T01:20:32.054Z,99.90
2018-06-12T01:22:59.090Z,99.90
2018-06-12T01:25:26.131Z,99.90
2018-06-12T01:27:53.154Z,99.90
2018-06-12T01:32:47.295Z,99.90
2018-06-12T01:35:14.326Z,99.90
2018-06-12T01:37:41.334Z,99.90
2018-06-12T01:40:08.374Z,99.90
2018-06-12T01:42:35.386Z,99.90
2018-06-12T01:45:02.444Z,99.90
2018-06-12T01:47:29.496Z,99.90
2018-06-12T01:49:56.491Z,99.90
2018-06-12T01:52:23.543Z,99.90
2018-06-12T01:54:50.622Z,99.90
2018-06-12T01:57:17.735Z,99.90
2018-06-12T01:59:44.751Z,99.90
2018-06-12T02:02:11.816Z,99.90
2018-06-12T02:04:38.832Z,99.90
2018-06-12T02:07:05.855Z,99.90
2018-06-12T02:09:32.903Z,99.90
2018-06-12T02:12:00.014Z,99.90
2018-06-12T02:14:27.067Z,99.90
2018-06-12T02:16:54.083Z,99.90
2018-06-12T02:19:21.175Z,99.90
2018-06-12T02:21:48.241Z,99.90
2018-06-12T02:24:15.284Z,99.90
2018-06-12T02:26:42.335Z,99.90
2018-06-12T02:29:09.351Z,99.90
2018-06-12T02:31:36.400Z,99.90
2018-06-12T02:34:03.457Z,99.90
2018-06-12T02:36:30.499Z,99.90
2018-06-12T02:38:57.551Z,99.90
2018-06-12T02:41:24.584Z,99.90
2018-06-12T02:43:51.635Z,99.90
2018-06-12T02:46:18.715Z,99.90
2018-06-12T02:48:45.763Z,99.90
2018-06-12T02:51:12.824Z,99.90
2018-06-12T02:53:39.904Z,99.90
2018-06-12T02:56:06.964Z,99.90
2018-06-12T02:58:33.967Z,99.90
2018-06-12T03:01:01.031Z,99.90
2018-06-12T03:03:28.055Z,99.90
2018-06-12T03:05:55.109Z,99.90
2018-06-12T03:08:22.145Z,99.90
2018-06-12T03:10:49.212Z,99.90
2018-06-12T03:13:16.250Z,99.90
2018-06-12T03:15:43.296Z,99.90
2018-06-12T03:18:10.347Z,99.90
2018-06-12T03:20:44.102Z,99.90
2018-06-12T03:23:11.217Z,99.90
2018-06-12T03:25:38.207Z,99.90
2018-06-12T03:28:05.273Z,99.90
2018-06-12T03:30:32.288Z,99.90
2018-06-12T03:32:59.363Z,99.90
2018-06-12T03:35:26.371Z,99.90
2018-06-12T03:37:53.403Z,99.90
2018-06-12T03:40:20.441Z,99.90
2018-06-12T03:42:47.520Z,99.90
2018-06-12T03:45:14.524Z,99.90
2018-06-12T03:47:41.568Z,99.90
2018-06-12T03:50:08.628Z,99.90
2018-06-12T03:52:35.669Z,99.90
2018-06-12T03:55:02.731Z,99.90
2018-06-12T03:57:30.127Z,99.90
2018-06-12T03:59:57.164Z,99.90
2018-06-12T04:02:24.183Z,99.90
2018-06-12T04:04:51.208Z,99.90
2018-06-12T04:07:18.268Z,99.90
2018-06-12T04:09:45.288Z,99.90
2018-06-12T04:12:12.331Z,99.90
2018-06-12T04:14:39.401Z,99.90
2018-06-12T04:17:06.407Z,99.90
2018-06-12T04:19:33.411Z,99.90
2018-06-12T04:24:27.588Z,99.90
2018-06-12T04:26:54.609Z,99.90
2018-06-12T04:29:21.679Z,99.90
2018-06-12T04:31:48.730Z,99.90
2018-06-12T04:34:15.774Z,99.90
2018-06-12T04:36:42.783Z,99.90
2018-06-12T04:39:09.831Z,99.90
2018-06-12T04:41:36.843Z,99.90
2018-06-12T04:44:04.045Z,99.90
2018-06-12T04:46:31.133Z,99.90
2018-06-12T04:48:58.172Z,99.90
2018-06-12T04:51:25.218Z,99.90
2018-06-12T04:53:52.243Z,99.90
2018-06-12T04:56:19.324Z,99.90
2018-06-12T04:58:46.344Z,99.90
2018-06-12T05:01:13.392Z,99.90
2018-06-12T05:03:40.410Z,99.90
2018-06-12T05:06:07.477Z,99.90
2018-06-12T05:08:34.565Z,99.90
2018-06-12T05:11:01.609Z,99.90
2018-06-12T05:13:28.661Z,99.90
2018-06-12T05:15:55.672Z,99.90
2018-06-12T05:18:22.747Z,99.90
2018-06-12T05:20:49.780Z,99.90
2018-06-12T05:23:16.800Z,99.90
2018-06-12T05:25:43.852Z,99.90
2018-06-12T05:28:10.879Z,99.90
2018-06-12T05:30:37.971Z,99.90
2018-06-12T05:33:04.992Z,99.90
2018-06-12T05:35:32.036Z,99.90
2018-06-12T05:37:59.047Z,99.90
2018-06-12T05:40:26.121Z,99.90
2018-06-12T05:42:53.141Z,99.90
2018-06-12T05:45:20.210Z,99.90
2018-06-12T05:47:47.257Z,99.90
2018-06-12T05:50:14.295Z,99.90
2018-06-12T05:52:41.319Z,99.90
2018-06-12T05:55:08.367Z,99.90
2018-06-12T05:57:35.391Z,99.90
2018-06-12T06:00:02.506Z,99.90
2018-06-12T06:02:29.527Z,99.90
2018-06-12T06:04:56.591Z,99.90
2018-06-12T06:07:23.615Z,99.90
2018-06-12T06:09:50.667Z,99.90
2018-06-12T06:12:17.733Z,99.90
2018-06-12T06:14:44.748Z,99.90
2018-06-12T06:17:11.790Z,99.90
2018-06-12T06:19:38.807Z,99.90
2018-06-12T06:22:05.932Z,99.90
2018-06-12T06:24:32.968Z,99.90
2018-06-12T06:27:00.009Z,99.90
2018-06-12T06:29:27.031Z,99.90
2018-06-12T06:31:54.100Z,99.90
2018-06-12T06:34:21.160Z,99.90
2018-06-12T06:36:48.206Z,99.90
2018-06-12T06:39:15.257Z,99.90
2018-06-12T06:41:42.268Z,99.90
2018-06-12T06:44:09.331Z,99.90
2018-06-12T06:46:36.379Z,99.90
2018-06-12T06:49:03.431Z,99.90
2018-06-12T06:51:30.447Z,99.90
2018-06-12T06:53:57.491Z,99.90
2018-06-12T06:56:24.551Z,99.90
2018-06-12T06:58:51.614Z,99.90
2018-06-12T07:01:18.667Z,99.90
2018-06-12T07:03:45.669Z,99.90
2018-06-12T07:06:12.732Z,99.90
2018-06-12T07:08:39.763Z,99.90
2018-06-12T07:11:06.860Z,99.90
2018-06-12T07:13:33.882Z,99.90
2018-06-12T07:16:00.907Z,99.90
2018-06-12T07:18:27.955Z,99.90
2018-06-12T07:21:16.107Z,99.90
2018-06-12T07:23:43.177Z,99.90
2018-06-12T07:26:10.236Z,99.90
2018-06-12T07:28:37.263Z,99.90
2018-06-12T07:31:04.331Z,99.90
2018-06-12T07:33:31.387Z,99.90
2018-06-12T07:35:58.408Z,99.90
2018-06-12T07:38:25.464Z,99.90
2018-06-12T07:43:19.644Z,99.90
2018-06-12T07:45:46.680Z,99.90
2018-06-12T07:48:13.711Z,99.90
2018-06-12T07:50:40.752Z,99.90
2018-06-12T07:53:07.787Z,99.90
2018-06-12T07:55:35.024Z,99.90
2018-06-12T07:58:02.503Z,99.90
2018-06-12T08:00:29.590Z,99.90
2018-06-12T08:02:56.600Z,99.90
2018-06-12T08:07:50.763Z,99.90
2018-06-12T08:10:17.863Z,99.90
2018-06-12T08:12:44.901Z,99.90
2018-06-12T08:15:11.909Z,99.90
2018-06-12T08:17:38.955Z,99.90
2018-06-12T08:20:05.984Z,99.90
2018-06-12T08:22:33.128Z,99.90
2018-06-12T08:25:00.128Z,99.90
2018-06-12T08:27:27.147Z,99.90
2018-06-12T08:29:54.255Z,99.90
2018-06-12T08:32:21.323Z,99.90
2018-06-12T08:37:15.500Z,99.90
2018-06-12T08:39:42.588Z,99.90
2018-06-12T08:42:09.616Z,99.90
2018-06-12T08:44:36.696Z,99.90
2018-06-12T08:47:03.776Z,99.90
2018-06-12T08:49:30.803Z,99.90
2018-06-12T08:51:57.853Z,99.90
2018-06-12T08:54:24.855Z,99.40
2018-06-12T08:56:51.916Z,99.90
2018-06-12T08:59:18.996Z,99.90
2018-06-12T09:01:46.058Z,97.70
2018-06-12T09:04:13.074Z,98.10
2018-06-12T09:06:40.103Z,98.30
2018-06-12T09:09:07.151Z,97.10
2018-06-12T09:11:34.194Z,99.30
2018-06-12T09:14:01.379Z,99.70
2018-06-12T09:16:28.407Z,99.40
2018-06-12T09:18:55.439Z,99.20
2018-06-12T09:21:22.684Z,96.70
2018-06-12T09:23:49.789Z,98.70
2018-06-12T09:26:16.844Z,97.30
2018-06-12T09:28:43.859Z,93.70
2018-06-12T09:31:10.907Z,95.00
2018-06-12T09:33:37.931Z,96.70
2018-06-12T09:36:10.755Z,95.50
2018-06-12T09:38:37.758Z,94.30
2018-06-12T09:41:04.947Z,92.50
2018-06-12T09:43:31.967Z,92.20
2018-06-12T09:45:58.983Z,90.40
2018-06-12T09:48:26.032Z,90.60
2018-06-12T09:50:53.136Z,88.10
2018-06-12T09:53:20.216Z,88.80
2018-06-12T09:55:47.337Z,87.90
2018-06-12T09:58:14.352Z,86.40
2018-06-12T10:00:47.199Z,85.20
2018-06-12T10:03:14.257Z,82.50
2018-06-12T10:05:41.299Z,86.30
2018-06-12T10:08:08.328Z,85.70
2018-06-12T10:10:35.407Z,83.40
2018-06-12T10:13:02.424Z,83.60
2018-06-12T10:15:29.440Z,81.70
2018-06-12T10:17:56.496Z,82.40
2018-06-12T10:20:23.507Z,82.20
2018-06-12T10:25:17.706Z,81.70
2018-06-12T10:27:44.751Z,84.10
2018-06-12T10:30:11.815Z,80.80
2018-06-12T10:32:38.824Z,81.20
2018-06-12T10:40:00.092Z,78.80
2018-06-12T10:42:27.176Z,80.60
2018-06-12T10:44:54.328Z,82.60
2018-06-12T10:52:15.616Z,83.80
2018-06-12T10:54:42.671Z,81.80
2018-06-12T10:57:09.671Z,82.20
2018-06-12T10:59:36.717Z,82.10
2018-06-12T11:02:03.812Z,80.20
2018-06-12T11:04:30.827Z,79.10
2018-06-12T11:06:57.878Z,80.40
2018-06-12T11:09:24.927Z,76.80
2018-06-12T11:11:51.951Z,78.40
2018-06-12T11:14:19.011Z,80.00
2018-06-12T11:16:46.031Z,77.20
2018-06-12T11:19:13.073Z,79.40
2018-06-12T11:21:40.092Z,75.50
2018-06-12T11:24:07.181Z,75.70
2018-06-12T11:26:34.272Z,78.00
2018-06-12T11:29:01.304Z,78.40
2018-06-12T11:31:28.324Z,78.30
2018-06-12T11:33:55.383Z,78.70
2018-06-12T11:36:22.416Z,76.70
2018-06-12T11:38:49.451Z,76.30
2018-06-12T11:41:16.493Z,78.60
2018-06-12T11:43:43.543Z,77.70
2018-06-12T11:46:10.591Z,76.00
2018-06-12T11:48:37.597Z,73.80
2018-06-12T11:51:04.707Z,72.30
2018-06-12T11:53:31.707Z,69.30
2018-06-12T11:55:58.759Z,69.90
2018-06-12T11:58:25.779Z,70.40
2018-06-12T12:00:52.832Z,68.30
2018-06-12T12:03:19.865Z,67.10
2018-06-12T12:08:14.048Z,67.40
2018-06-12T12:10:41.059Z,66.30
2018-06-12T12:13:08.299Z,66.90
2018-06-12T12:15:35.327Z,64.60
2018-06-12T12:18:02.391Z,64.00
2018-06-12T12:20:29.400Z,61.70
2018-06-12T12:22:56.420Z,58.60
2018-06-12T12:25:23.459Z,56.00
2018-06-12T12:27:50.516Z,53.00
2018-06-12T12:30:17.565Z,48.00
2018-06-12T12:32:44.594Z,44.30
2018-06-12T12:35:11.644Z,44.10
2018-06-12T12:37:38.687Z,48.80
2018-06-12T12:40:05.720Z,49.50
2018-06-12T12:42:32.791Z,50.20
2018-06-12T12:44:59.803Z,53.20
2018-06-12T12:47:26.809Z,51.50
2018-06-12T12:49:53.864Z,52.20
2018-06-12T12:52:20.932Z,54.80
2018-06-12T12:54:47.995Z,54.20
2018-06-12T12:57:15.060Z,50.20
2018-06-12T12:59:42.107Z,51.50
2018-06-12T13:02:09.139Z,49.50
2018-06-12T13:04:36.195Z,46.40
2018-06-12T13:07:03.248Z,49.30
2018-06-12T13:09:30.321Z,53.30
2018-06-12T13:11:57.357Z,54.40
2018-06-12T13:14:24.453Z,54.60
2018-06-12T13:16:51.511Z,55.00
2018-06-12T13:19:18.917Z,54.60
2018-06-12T13:21:45.977Z,53.00
2018-06-12T13:24:12.979Z,52.80
2018-06-12T13:26:40.077Z,52.60
2018-06-12T13:29:07.056Z,54.00
2018-06-12T13:31:34.131Z,55.00
2018-06-12T13:34:01.156Z,55.10
2018-06-12T13:36:28.280Z,56.50
2018-06-12T13:38:55.312Z,56.90
2018-06-12T13:41:22.419Z,54.00
2018-06-12T13:43:49.511Z,53.50
2018-06-12T13:46:16.576Z,52.40
2018-06-12T13:48:43.579Z,53.10
2018-06-12T13:51:10.656Z,53.70
2018-06-12T13:53:37.683Z,52.60
2018-06-12T13:56:04.719Z,52.80
2018-06-12T13:58:31.783Z,52.80
2018-06-12T14:03:25.895Z,50.30
2018-06-12T14:05:52.968Z,48.80
2018-06-12T14:08:20.011Z,48.60
2018-06-12T14:10:47.065Z,47.60
2018-06-12T14:13:14.143Z,47.70
2018-06-12T14:15:41.194Z,43.50
2018-06-12T14:18:08.234Z,40.60
2018-06-12T14:20:35.252Z,41.40
2018-06-12T14:23:02.305Z,39.10
2018-06-12T14:25:29.347Z,37.70
2018-06-12T14:30:23.516Z,41.00
2018-06-12T14:32:50.575Z,43.20
2018-06-12T14:35:17.612Z,43.00
2018-06-12T14:37:44.650Z,42.00
2018-06-12T14:40:11.703Z,42.20
2018-06-12T14:42:38.763Z,43.50
2018-06-12T14:45:05.848Z,45.50
2018-06-12T14:50:00.041Z,49.60
2018-06-12T14:52:27.103Z,53.10
2018-06-12T14:54:54.112Z,51.70
2018-06-12T14:57:21.212Z,49.20
2018-06-12T14:59:48.258Z,49.60
2018-06-12T15:02:15.320Z,50.70
2018-06-12T15:04:42.331Z,49.00
2018-06-12T15:07:09.403Z,50.00
2018-06-12T15:09:36.424Z,50.10
2018-06-12T15:12:03.480Z,49.60
2018-06-12T15:14:30.508Z,49.30
2018-06-12T15:16:57.539Z,50.50
2018-06-12T15:19:24.585Z,51.50
2018-06-12T15:21:51.624Z,51.30
2018-06-12T15:24:18.710Z,52.10
2018-06-12T15:26:45.736Z,50.10
2018-06-12T15:29:12.791Z,49.80
2018-06-12T15:31:39.812Z,49.40
2018-06-12T15:36:33.984Z,48.80
2018-06-12T15:39:01.027Z,49.80
2018-06-12T15:41:28.059Z,50.40
2018-06-12T15:43:55.155Z,51.40
2018-06-12T15:46:22.179Z,50.50
2018-06-12T15:48:49.211Z,49.50
2018-06-12T15:51:16.247Z,50.00
2018-06-12T15:53:43.264Z,50.20
2018-06-12T15:58:37.427Z,49.90
2018-06-12T16:01:04.503Z,49.50
2018-06-12T16:03:31.576Z,49.50
2018-06-12T16:05:58.648Z,49.50
2018-06-12T16:08:25.699Z,49.00
2018-06-12T16:10:52.759Z,48.10
2018-06-12T16:13:19.791Z,49.80
2018-06-12T16:15:46.800Z,51.50
2018-06-12T16:18:13.847Z,52.20
2018-06-12T16:20:40.892Z,52.30
2018-06-12T16:23:07.915Z,51.20
2018-06-12T16:25:34.951Z,50.60
2018-06-12T16:28:02.008Z,51.50
2018-06-12T16:30:29.031Z,51.40
2018-06-12T16:32:56.067Z,51.60
2018-06-12T16:35:23.113Z,51.40
2018-06-12T16:37:50.209Z,51.10
2018-06-12T16:40:17.513Z,50.30
2018-06-12T16:42:44.543Z,50.00
2018-06-12T16:45:11.599Z,50.00
2018-06-12T16:47:38.631Z,49.90
2018-06-12T16:50:05.685Z,48.10
2018-06-12T16:52:33.644Z,47.10
2018-06-12T16:55:00.663Z,48.00
2018-06-12T16:57:27.715Z,48.30
2018-06-12T16:59:54.742Z,48.20
2018-06-12T17:02:21.818Z,48.40
2018-06-12T17:04:49.108Z,49.20
2018-06-12T17:07:16.131Z,49.10
2018-06-12T17:09:43.182Z,49.60
2018-06-12T17:12:10.212Z,50.30
2018-06-12T17:14:37.280Z,50.50
2018-06-12T17:17:04.339Z,50.80
2018-06-12T17:19:31.383Z,50.40
2018-06-12T17:21:58.408Z,52.10
2018-06-12T17:24:25.435Z,52.00
2018-06-12T17:26:52.511Z,53.00
2018-06-12T17:29:19.716Z,52.50
2018-06-12T17:31:46.771Z,52.50
2018-06-12T17:34:13.836Z,53.20
2018-06-12T17:36:40.887Z,53.50
2018-06-12T17:39:07.965Z,53.90
2018-06-12T17:41:34.983Z,53.30
2018-06-12T17:44:02.364Z,53.60
2018-06-12T17:46:29.411Z,54.20
2018-06-12T17:48:56.436Z,54.40
2018-06-12T17:51:23.487Z,55.10
2018-06-12T17:53:50.672Z,55.20
2018-06-12T17:56:17.887Z,54.90
2018-06-12T17:58:44.919Z,55.50
2018-06-12T18:01:11.935Z,56.30
2018-06-12T18:03:39.011Z,56.10
2018-06-12T18:06:06.263Z,55.80
2018-06-12T18:08:33.290Z,56.40
2018-06-12T18:11:00.317Z,56.30
2018-06-12T18:13:27.343Z,56.80
2018-06-12T18:15:54.379Z,55.60
2018-06-12T18:18:21.480Z,56.00
2018-06-12T18:20:48.572Z,56.20
2018-06-12T18:23:15.595Z,56.80
2018-06-12T18:25:42.664Z,57.30
2018-06-12T18:28:09.687Z,57.20
2018-06-12T18:30:36.751Z,57.60
2018-06-12T18:33:03.843Z,57.70
2018-06-12T18:35:30.887Z,57.80
2018-06-12T18:37:57.918Z,58.30
2018-06-12T18:40:24.979Z,58.50
2018-06-12T18:42:52.711Z,58.40
2018-06-12T18:45:19.988Z,58.50
2018-06-12T18:47:47.080Z,58.40
2018-06-12T18:50:14.241Z,58.50
2018-06-12T18:52:41.311Z,58.60
2018-06-12T18:55:08.880Z,59.00
2018-06-12T18:57:36.021Z,59.20
2018-06-12T19:00:03.752Z,58.90
2018-06-12T19:02:30.767Z,59.80
2018-06-12T19:04:57.843Z,59.80
2018-06-12T19:07:24.850Z,59.40
2018-06-12T19:09:52.074Z,60.00
2018-06-12T19:14:46.346Z,59.20
2018-06-12T19:17:13.409Z,59.10
2018-06-12T19:19:40.423Z,59.00
2018-06-12T19:22:07.464Z,59.20
2018-06-12T19:24:34.512Z,58.80
2018-06-12T19:27:01.560Z,59.30
2018-06-12T19:29:28.615Z,59.70
2018-06-12T19:31:55.665Z,59.50
2018-06-12T19:34:22.800Z,59.80
2018-06-12T19:36:51.114Z,59.80
2018-06-12T19:39:18.165Z,60.00
2018-06-12T19:41:45.207Z,60.10
2018-06-12T19:44:12.251Z,60.50
2018-06-12T19:46:39.271Z,60.10
2018-06-12T19:49:06.347Z,60.30
2018-06-12T19:51:33.368Z,60.00
2018-06-12T19:54:00.372Z,60.60
2018-06-12T19:56:27.448Z,60.00
2018-06-12T19:58:54.556Z,59.80
2018-06-12T20:01:21.636Z,59.90
2018-06-12T20:03:48.969Z,60.00
2018-06-12T20:06:16.102Z,60.00
2018-06-12T20:08:43.192Z,60.30
2018-06-12T20:11:10.264Z,61.10
2018-06-12T20:13:37.299Z,61.20
2018-06-12T20:18:31.444Z,63.10
2018-06-12T20:20:58.483Z,62.30
2018-06-12T20:23:25.495Z,62.50
2018-06-12T20:25:52.551Z,64.00
2018-06-12T20:28:19.663Z,63.30
2018-06-12T20:30:46.737Z,64.20
2018-06-12T20:33:13.832Z,62.80
2018-06-12T20:35:40.868Z,63.50
2018-06-12T20:38:07.919Z,62.60
2018-06-12T20:40:34.941Z,63.50
2018-06-12T20:43:01.997Z,63.80
2018-06-12T20:45:29.048Z,64.50
2018-06-12T20:47:56.116Z,64.60
2018-06-12T20:50:23.195Z,65.10
2018-06-12T20:52:50.275Z,65.40
2018-06-12T20:55:17.328Z,65.30
2018-06-12T20:57:44.360Z,64.40
2018-06-12T21:00:11.427Z,65.20
2018-06-12T21:02:38.498Z,65.20
2018-06-12T21:05:05.551Z,65.50
2018-06-12T21:07:32.642Z,65.60
2018-06-12T21:09:59.699Z,65.60
2018-06-12T21:12:26.700Z,66.00
2018-06-12T21:14:53.736Z,66.30
2018-06-12T21:19:47.926Z,67.90
2018-06-12T21:22:14.947Z,67.80
2018-06-12T21:24:41.971Z,67.70
2018-06-12T21:27:08.991Z,68.00
2018-06-12T21:29:36.092Z,68.60
2018-06-12T21:32:03.151Z,68.30
2018-06-12T21:34:30.163Z,69.00
2018-06-12T21:36:57.220Z,68.90
2018-06-12T21:39:24.231Z,68.80
2018-06-12T21:41:51.304Z,68.60
2018-06-12T21:44:18.383Z,68.30
2018-06-12T21:49:12.563Z,69.50
2018-06-12T21:51:39.634Z,68.50
2018-06-12T21:54:06.704Z,68.60
2018-06-12T21:56:33.741Z,69.30
2018-06-12T21:59:00.772Z,69.30
2018-06-12T22:01:27.814Z,69.20
2018-06-12T22:03:54.839Z,68.80
2018-06-12T22:06:21.900Z,68.50
2018-06-12T22:08:48.963Z,68.40
2018-06-12T22:11:15.987Z,69.10
2018-06-12T22:13:43.032Z,69.30
2018-06-12T22:16:11.317Z,69.20
2018-06-12T22:18:38.340Z,69.30
2018-06-12T22:21:05.425Z,69.80
2018-06-12T22:25:59.600Z,70.70
2018-06-12T22:28:26.646Z,69.80
2018-06-12T22:30:53.659Z,70.40
2018-06-12T22:33:20.719Z,70.80
2018-06-12T22:35:47.792Z,70.60
2018-06-12T22:38:14.831Z,70.70
2018-06-12T22:40:41.916Z,71.60
2018-06-12T22:43:09.013Z,73.10
2018-06-12T22:45:36.058Z,73.30
2018-06-12T22:48:03.079Z,74.10
2018-06-12T22:50:30.147Z,73.20
2018-06-12T22:52:57.167Z,72.10
2018-06-12T22:55:24.188Z,73.60
2018-06-12T22:57:51.252Z,73.60
2018-06-12T23:00:19.007Z,74.50
2018-06-12T23:02:46.167Z,73.90
2018-06-12T23:05:13.235Z,74.10
2018-06-12T23:07:40.248Z,74.00
2018-06-12T23:10:07.260Z,73.90
2018-06-12T23:15:01.412Z,74.60
2018-06-12T23:17:28.451Z,76.00
2018-06-12T23:22:28.364Z,77.20
2018-06-12T23:24:55.375Z,75.90
2018-06-12T23:27:22.456Z,76.30
2018-06-12T23:29:49.508Z,76.10
2018-06-12T23:32:16.575Z,75.10
2018-06-12T23:34:43.596Z,75.10
2018-06-12T23:37:10.636Z,74.60
2018-06-12T23:39:37.728Z,74.70
2018-06-12T23:42:04.776Z,74.50
2018-06-12T23:44:31.823Z,73.20
2018-06-12T23:46:58.863Z,73.40
2018-06-12T23:49:25.927Z,73.40
2018-06-12T23:51:52.955Z,73.20
2018-06-12T23:54:20.004Z,73.20
2018-06-12T23:56:47.020Z,73.10
2018-06-12T23:59:14.080Z,72.60
